sensor_id;sensor_type;location;lat;lon;timestamp;P1;durP1;ratioP1;P2;durP2;ratioP2
77563;SDS011;66703;48.076;9.220;2023-07-08T00:01:39;8.73;;;6.80;;
77563;SDS011;66703;48.076;9.220;2023-07-08T00:04:05;9.13;;;6.30;;
77563;SDS011;66703;48.076;9.220;2023-07-08T00:06:32;10.70;;;6.85;;
77563;SDS011;66703;48.076;9.220;2023-07-08T00:08:58;10.50;;;7.25;;
77563;SDS011;66703;48.076;9.220;2023-07-08T00:11:23;7.90;;;6.63;;
77563;SDS011;66703;48.076;9.220;2023-07-08T00:13:48;11.35;;;6.93;;
77563;SDS011;66703;48.076;9.220;2023-07-08T00:16:15;10.10;;;7.22;;
77563;SDS011;66703;48.076;9.220;2023-07-08T00:18:42;10.27;;;6.32;;
77563;SDS011;66703;48.076;9.220;2023-07-08T00:21:11;10.27;;;7.30;;
77563;SDS011;66703;48.076;9.220;2023-07-08T00:23:39;9.00;;;7.30;;
77563;SDS011;66703;48.076;9.220;2023-07-08T00:26:13;13.55;;;8.18;;
77563;SDS011;66703;48.076;9.220;2023-07-08T00:28:43;10.73;;;6.88;;
77563;SDS011;66703;48.076;9.220;2023-07-08T00:31:09;12.52;;;8.00;;
77563;SDS011;66703;48.076;9.220;2023-07-08T00:33:35;10.90;;;7.25;;
77563;SDS011;66703;48.076;9.220;2023-07-08T00:36:00;13.43;;;7.53;;
77563;SDS011;66703;48.076;9.220;2023-07-08T00:38:26;10.40;;;6.97;;
77563;SDS011;66703;48.076;9.220;2023-07-08T00:40:59;11.00;;;7.43;;
77563;SDS011;66703;48.076;9.220;2023-07-08T00:48:36;9.80;;;6.05;;
77563;SDS011;66703;48.076;9.220;2023-07-08T00:51:02;11.25;;;7.07;;
77563;SDS011;66703;48.076;9.220;2023-07-08T00:53:30;7.90;;;6.57;;
77563;SDS011;66703;48.076;9.220;2023-07-08T00:56:08;11.23;;;6.97;;
77563;SDS011;66703;48.076;9.220;2023-07-08T00:58:44;12.55;;;7.18;;
77563;SDS011;66703;48.076;9.220;2023-07-08T01:01:13;10.52;;;7.50;;
77563;SDS011;66703;48.076;9.220;2023-07-08T01:03:42;9.30;;;6.90;;
77563;SDS011;66703;48.076;9.220;2023-07-08T01:06:10;9.55;;;6.93;;
77563;SDS011;66703;48.076;9.220;2023-07-08T01:08:35;10.02;;;7.43;;
77563;SDS011;66703;48.076;9.220;2023-07-08T01:11:01;10.50;;;6.88;;
77563;SDS011;66703;48.076;9.220;2023-07-08T01:13:30;11.65;;;7.22;;
77563;SDS011;66703;48.076;9.220;2023-07-08T01:15:59;10.23;;;7.07;;
77563;SDS011;66703;48.076;9.220;2023-07-08T01:18:25;10.05;;;7.60;;
77563;SDS011;66703;48.076;9.220;2023-07-08T01:20:51;9.88;;;7.72;;
77563;SDS011;66703;48.076;9.220;2023-07-08T01:23:20;11.38;;;8.27;;
77563;SDS011;66703;48.076;9.220;2023-07-08T01:25:45;9.70;;;6.65;;
77563;SDS011;66703;48.076;9.220;2023-07-08T01:28:11;10.13;;;7.47;;
77563;SDS011;66703;48.076;9.220;2023-07-08T01:30:37;10.80;;;7.30;;
77563;SDS011;66703;48.076;9.220;2023-07-08T01:33:04;9.15;;;7.65;;
77563;SDS011;66703;48.076;9.220;2023-07-08T01:35:35;9.43;;;6.57;;
77563;SDS011;66703;48.076;9.220;2023-07-08T01:38:01;9.57;;;6.75;;
77563;SDS011;66703;48.076;9.220;2023-07-08T01:40:35;12.60;;;7.20;;
77563;SDS011;66703;48.076;9.220;2023-07-08T01:43:02;11.18;;;7.03;;
77563;SDS011;66703;48.076;9.220;2023-07-08T01:45:31;10.98;;;6.97;;
77563;SDS011;66703;48.076;9.220;2023-07-08T01:48:01;12.45;;;7.82;;
77563;SDS011;66703;48.076;9.220;2023-07-08T01:50:29;11.80;;;6.97;;
77563;SDS011;66703;48.076;9.220;2023-07-08T01:52:56;13.38;;;8.25;;
77563;SDS011;66703;48.076;9.220;2023-07-08T01:55:23;11.27;;;7.55;;
77563;SDS011;66703;48.076;9.220;2023-07-08T01:57:52;16.40;;;7.63;;
77563;SDS011;66703;48.076;9.220;2023-07-08T02:00:18;14.10;;;8.98;;
77563;SDS011;66703;48.076;9.220;2023-07-08T02:02:44;10.20;;;7.18;;
77563;SDS011;66703;48.076;9.220;2023-07-08T02:05:09;10.48;;;7.30;;
77563;SDS011;66703;48.076;9.220;2023-07-08T02:07:35;12.25;;;8.40;;
77563;SDS011;66703;48.076;9.220;2023-07-08T02:10:00;10.50;;;6.95;;
77563;SDS011;66703;48.076;9.220;2023-07-08T02:12:26;11.18;;;7.40;;
77563;SDS011;66703;48.076;9.220;2023-07-08T02:14:51;13.40;;;9.07;;
77563;SDS011;66703;48.076;9.220;2023-07-08T02:17:16;11.07;;;7.18;;
77563;SDS011;66703;48.076;9.220;2023-07-08T02:19:42;9.70;;;7.40;;
77563;SDS011;66703;48.076;9.220;2023-07-08T02:22:08;9.07;;;7.53;;
77563;SDS011;66703;48.076;9.220;2023-07-08T02:24:33;11.05;;;7.35;;
77563;SDS011;66703;48.076;9.220;2023-07-08T02:26:59;10.65;;;7.40;;
77563;SDS011;66703;48.076;9.220;2023-07-08T02:29:24;10.18;;;7.70;;
77563;SDS011;66703;48.076;9.220;2023-07-08T02:31:51;10.13;;;7.70;;
77563;SDS011;66703;48.076;9.220;2023-07-08T02:34:16;11.07;;;7.93;;
77563;SDS011;66703;48.076;9.220;2023-07-08T02:36:41;12.27;;;7.32;;
77563;SDS011;66703;48.076;9.220;2023-07-08T02:39:08;10.13;;;8.30;;
77563;SDS011;66703;48.076;9.220;2023-07-08T02:41:34;11.85;;;7.45;;
77563;SDS011;66703;48.076;9.220;2023-07-08T02:44:00;10.50;;;7.60;;
77563;SDS011;66703;48.076;9.220;2023-07-08T02:46:25;11.13;;;7.68;;
77563;SDS011;66703;48.076;9.220;2023-07-08T02:48:50;11.00;;;8.68;;
77563;SDS011;66703;48.076;9.220;2023-07-08T02:51:16;11.30;;;6.93;;
77563;SDS011;66703;48.076;9.220;2023-07-08T02:53:41;10.25;;;7.55;;
77563;SDS011;66703;48.076;9.220;2023-07-08T02:56:06;11.40;;;7.93;;
77563;SDS011;66703;48.076;9.220;2023-07-08T02:58:32;11.13;;;8.38;;
77563;SDS011;66703;48.076;9.220;2023-07-08T03:00:59;12.70;;;8.00;;
77563;SDS011;66703;48.076;9.220;2023-07-08T03:03:25;9.18;;;6.97;;
77563;SDS011;66703;48.076;9.220;2023-07-08T03:05:58;9.45;;;7.15;;
77563;SDS011;66703;48.076;9.220;2023-07-08T03:08:25;10.13;;;6.38;;
77563;SDS011;66703;48.076;9.220;2023-07-08T03:10:58;10.32;;;7.20;;
77563;SDS011;66703;48.076;9.220;2023-07-08T03:13:28;9.10;;;7.53;;
77563;SDS011;66703;48.076;9.220;2023-07-08T03:15:54;10.50;;;7.80;;
77563;SDS011;66703;48.076;9.220;2023-07-08T03:18:20;10.60;;;7.45;;
77563;SDS011;66703;48.076;9.220;2023-07-08T03:20:48;10.57;;;8.40;;
77563;SDS011;66703;48.076;9.220;2023-07-08T03:23:14;9.75;;;8.13;;
77563;SDS011;66703;48.076;9.220;2023-07-08T03:25:39;12.23;;;7.60;;
77563;SDS011;66703;48.076;9.220;2023-07-08T03:28:05;13.32;;;7.38;;
77563;SDS011;66703;48.076;9.220;2023-07-08T03:30:31;10.35;;;6.72;;
77563;SDS011;66703;48.076;9.220;2023-07-08T03:32:58;16.05;;;8.98;;
77563;SDS011;66703;48.076;9.220;2023-07-08T03:35:23;13.88;;;8.00;;
77563;SDS011;66703;48.076;9.220;2023-07-08T03:37:48;14.73;;;7.50;;
77563;SDS011;66703;48.076;9.220;2023-07-08T03:40:14;11.45;;;7.45;;
77563;SDS011;66703;48.076;9.220;2023-07-08T03:42:39;8.63;;;7.28;;
77563;SDS011;66703;48.076;9.220;2023-07-08T03:45:05;14.52;;;7.63;;
77563;SDS011;66703;48.076;9.220;2023-07-08T03:47:30;12.60;;;8.02;;
77563;SDS011;66703;48.076;9.220;2023-07-08T03:49:56;10.95;;;8.13;;
77563;SDS011;66703;48.076;9.220;2023-07-08T03:52:21;11.88;;;8.55;;
77563;SDS011;66703;48.076;9.220;2023-07-08T03:54:46;10.20;;;7.85;;
77563;SDS011;66703;48.076;9.220;2023-07-08T03:57:12;9.90;;;7.30;;
77563;SDS011;66703;48.076;9.220;2023-07-08T03:59:37;11.02;;;7.03;;
77563;SDS011;66703;48.076;9.220;2023-07-08T04:02:03;11.32;;;7.88;;
77563;SDS011;66703;48.076;9.220;2023-07-08T04:04:29;11.27;;;8.20;;
77563;SDS011;66703;48.076;9.220;2023-07-08T04:06:54;8.65;;;6.35;;
77563;SDS011;66703;48.076;9.220;2023-07-08T04:09:20;10.45;;;7.30;;
77563;SDS011;66703;48.076;9.220;2023-07-08T04:11:45;14.93;;;8.38;;
77563;SDS011;66703;48.076;9.220;2023-07-08T04:14:11;12.63;;;7.70;;
77563;SDS011;66703;48.076;9.220;2023-07-08T04:16:47;11.70;;;7.82;;
77563;SDS011;66703;48.076;9.220;2023-07-08T04:19:18;10.65;;;7.65;;
77563;SDS011;66703;48.076;9.220;2023-07-08T04:21:44;10.82;;;7.55;;
77563;SDS011;66703;48.076;9.220;2023-07-08T04:24:10;11.15;;;7.78;;
77563;SDS011;66703;48.076;9.220;2023-07-08T04:26:37;11.45;;;7.75;;
77563;SDS011;66703;48.076;9.220;2023-07-08T04:29:06;9.45;;;6.97;;
77563;SDS011;66703;48.076;9.220;2023-07-08T04:31:33;12.40;;;8.25;;
77563;SDS011;66703;48.076;9.220;2023-07-08T04:33:59;11.00;;;7.95;;
77563;SDS011;66703;48.076;9.220;2023-07-08T04:36:24;13.23;;;7.95;;
77563;SDS011;66703;48.076;9.220;2023-07-08T04:38:50;10.15;;;8.40;;
77563;SDS011;66703;48.076;9.220;2023-07-08T04:41:15;11.07;;;6.93;;
77563;SDS011;66703;48.076;9.220;2023-07-08T04:43:40;8.10;;;7.07;;
77563;SDS011;66703;48.076;9.220;2023-07-08T04:46:09;10.25;;;7.45;;
77563;SDS011;66703;48.076;9.220;2023-07-08T04:48:42;10.40;;;7.65;;
77563;SDS011;66703;48.076;9.220;2023-07-08T04:51:08;11.43;;;8.48;;
77563;SDS011;66703;48.076;9.220;2023-07-08T04:53:33;9.85;;;6.88;;
77563;SDS011;66703;48.076;9.220;2023-07-08T04:55:58;10.75;;;7.63;;
77563;SDS011;66703;48.076;9.220;2023-07-08T04:58:24;10.25;;;7.10;;
77563;SDS011;66703;48.076;9.220;2023-07-08T05:00:49;11.63;;;8.57;;
77563;SDS011;66703;48.076;9.220;2023-07-08T05:03:15;8.90;;;7.57;;
77563;SDS011;66703;48.076;9.220;2023-07-08T05:05:40;12.10;;;7.50;;
77563;SDS011;66703;48.076;9.220;2023-07-08T05:08:06;9.93;;;7.28;;
77563;SDS011;66703;48.076;9.220;2023-07-08T05:10:32;9.00;;;6.70;;
77563;SDS011;66703;48.076;9.220;2023-07-08T05:12:57;8.82;;;7.50;;
77563;SDS011;66703;48.076;9.220;2023-07-08T05:15:23;11.50;;;7.22;;
77563;SDS011;66703;48.076;9.220;2023-07-08T05:17:49;10.65;;;7.53;;
77563;SDS011;66703;48.076;9.220;2023-07-08T05:20:15;11.20;;;7.68;;
77563;SDS011;66703;48.076;9.220;2023-07-08T05:22:41;10.52;;;7.47;;
77563;SDS011;66703;48.076;9.220;2023-07-08T05:25:08;10.70;;;7.30;;
77563;SDS011;66703;48.076;9.220;2023-07-08T05:27:33;11.23;;;9.82;;
77563;SDS011;66703;48.076;9.220;2023-07-08T05:29:59;10.52;;;7.40;;
77563;SDS011;66703;48.076;9.220;2023-07-08T05:32:28;10.50;;;7.68;;
77563;SDS011;66703;48.076;9.220;2023-07-08T05:34:54;11.73;;;8.18;;
77563;SDS011;66703;48.076;9.220;2023-07-08T05:37:19;9.40;;;6.82;;
77563;SDS011;66703;48.076;9.220;2023-07-08T05:39:48;10.70;;;7.28;;
77563;SDS011;66703;48.076;9.220;2023-07-08T05:42:14;8.32;;;6.78;;
77563;SDS011;66703;48.076;9.220;2023-07-08T05:44:39;11.20;;;7.85;;
77563;SDS011;66703;48.076;9.220;2023-07-08T05:47:05;10.05;;;7.88;;
77563;SDS011;66703;48.076;9.220;2023-07-08T05:49:30;10.15;;;6.85;;
77563;SDS011;66703;48.076;9.220;2023-07-08T05:51:55;10.80;;;7.18;;
77563;SDS011;66703;48.076;9.220;2023-07-08T05:54:21;11.30;;;8.25;;
77563;SDS011;66703;48.076;9.220;2023-07-08T05:56:46;10.50;;;7.45;;
77563;SDS011;66703;48.076;9.220;2023-07-08T05:59:11;9.75;;;8.00;;
77563;SDS011;66703;48.076;9.220;2023-07-08T06:01:37;14.07;;;8.05;;
77563;SDS011;66703;48.076;9.220;2023-07-08T06:04:02;10.20;;;7.03;;
77563;SDS011;66703;48.076;9.220;2023-07-08T06:06:28;11.82;;;7.88;;
77563;SDS011;66703;48.076;9.220;2023-07-08T06:08:53;11.40;;;7.43;;
77563;SDS011;66703;48.076;9.220;2023-07-08T06:11:19;9.02;;;6.28;;
77563;SDS011;66703;48.076;9.220;2023-07-08T06:13:47;10.35;;;6.82;;
77563;SDS011;66703;48.076;9.220;2023-07-08T06:16:13;9.50;;;6.25;;
77563;SDS011;66703;48.076;9.220;2023-07-08T06:18:38;8.38;;;6.40;;
77563;SDS011;66703;48.076;9.220;2023-07-08T06:21:04;8.52;;;5.70;;
77563;SDS011;66703;48.076;9.220;2023-07-08T06:23:30;9.70;;;7.93;;
77563;SDS011;66703;48.076;9.220;2023-07-08T06:25:55;11.23;;;6.43;;
77563;SDS011;66703;48.076;9.220;2023-07-08T06:28:21;8.88;;;6.07;;
77563;SDS011;66703;48.076;9.220;2023-07-08T06:30:46;9.55;;;7.50;;
77563;SDS011;66703;48.076;9.220;2023-07-08T06:33:12;9.55;;;6.57;;
77563;SDS011;66703;48.076;9.220;2023-07-08T06:35:38;7.72;;;5.45;;
77563;SDS011;66703;48.076;9.220;2023-07-08T06:38:04;9.90;;;6.43;;
77563;SDS011;66703;48.076;9.220;2023-07-08T06:40:31;9.35;;;6.28;;
77563;SDS011;66703;48.076;9.220;2023-07-08T06:42:57;7.97;;;5.53;;
77563;SDS011;66703;48.076;9.220;2023-07-08T06:45:22;8.80;;;5.60;;
77563;SDS011;66703;48.076;9.220;2023-07-08T06:47:47;9.73;;;5.75;;
77563;SDS011;66703;48.076;9.220;2023-07-08T06:50:13;11.23;;;6.57;;
77563;SDS011;66703;48.076;9.220;2023-07-08T06:52:38;8.75;;;7.28;;
77563;SDS011;66703;48.076;9.220;2023-07-08T06:55:06;11.50;;;6.70;;
77563;SDS011;66703;48.076;9.220;2023-07-08T06:57:33;12.60;;;8.23;;
77563;SDS011;66703;48.076;9.220;2023-07-08T06:59:58;13.18;;;7.82;;
77563;SDS011;66703;48.076;9.220;2023-07-08T07:02:25;10.52;;;7.05;;
77563;SDS011;66703;48.076;9.220;2023-07-08T07:04:50;12.73;;;9.13;;
77563;SDS011;66703;48.076;9.220;2023-07-08T07:07:16;10.23;;;7.90;;
77563;SDS011;66703;48.076;9.220;2023-07-08T07:09:41;9.20;;;7.60;;
77563;SDS011;66703;48.076;9.220;2023-07-08T07:12:06;9.32;;;6.72;;
77563;SDS011;66703;48.076;9.220;2023-07-08T07:14:32;10.68;;;7.70;;
77563;SDS011;66703;48.076;9.220;2023-07-08T07:16:58;9.88;;;6.18;;
77563;SDS011;66703;48.076;9.220;2023-07-08T07:19:24;9.05;;;6.93;;
77563;SDS011;66703;48.076;9.220;2023-07-08T07:21:49;10.05;;;6.63;;
77563;SDS011;66703;48.076;9.220;2023-07-08T07:24:14;11.60;;;6.20;;
77563;SDS011;66703;48.076;9.220;2023-07-08T07:26:40;11.13;;;6.35;;
77563;SDS011;66703;48.076;9.220;2023-07-08T07:29:05;12.23;;;7.40;;
77563;SDS011;66703;48.076;9.220;2023-07-08T07:31:31;8.95;;;5.75;;
77563;SDS011;66703;48.076;9.220;2023-07-08T07:33:57;8.93;;;5.93;;
77563;SDS011;66703;48.076;9.220;2023-07-08T07:36:23;9.48;;;5.82;;
77563;SDS011;66703;48.076;9.220;2023-07-08T07:38:49;9.02;;;5.75;;
77563;SDS011;66703;48.076;9.220;2023-07-08T07:41:14;9.48;;;5.82;;
77563;SDS011;66703;48.076;9.220;2023-07-08T07:43:40;9.13;;;6.22;;
77563;SDS011;66703;48.076;9.220;2023-07-08T07:46:05;13.20;;;6.00;;
77563;SDS011;66703;48.076;9.220;2023-07-08T07:48:31;8.35;;;6.03;;
77563;SDS011;66703;48.076;9.220;2023-07-08T07:50:57;7.70;;;5.15;;
77563;SDS011;66703;48.076;9.220;2023-07-08T07:53:22;9.65;;;5.72;;
77563;SDS011;66703;48.076;9.220;2023-07-08T07:55:47;7.07;;;5.63;;
77563;SDS011;66703;48.076;9.220;2023-07-08T07:58:13;7.68;;;5.10;;
77563;SDS011;66703;48.076;9.220;2023-07-08T08:00:38;7.13;;;5.55;;
77563;SDS011;66703;48.076;9.220;2023-07-08T08:03:04;8.52;;;5.07;;
77563;SDS011;66703;48.076;9.220;2023-07-08T08:05:30;5.93;;;4.93;;
77563;SDS011;66703;48.076;9.220;2023-07-08T08:07:55;6.10;;;4.05;;
77563;SDS011;66703;48.076;9.220;2023-07-08T08:10:20;6.03;;;4.55;;
77563;SDS011;66703;48.076;9.220;2023-07-08T08:12:46;5.68;;;3.88;;
77563;SDS011;66703;48.076;9.220;2023-07-08T08:15:15;6.53;;;4.43;;
77563;SDS011;66703;48.076;9.220;2023-07-08T08:17:41;7.13;;;4.30;;
77563;SDS011;66703;48.076;9.220;2023-07-08T08:20:06;4.55;;;3.75;;
77563;SDS011;66703;48.076;9.220;2023-07-08T08:22:32;6.35;;;3.75;;
77563;SDS011;66703;48.076;9.220;2023-07-08T08:24:58;5.47;;;3.78;;
77563;SDS011;66703;48.076;9.220;2023-07-08T08:27:23;4.15;;;3.25;;
77563;SDS011;66703;48.076;9.220;2023-07-08T08:29:48;5.78;;;3.65;;
77563;SDS011;66703;48.076;9.220;2023-07-08T08:32:14;4.50;;;3.05;;
77563;SDS011;66703;48.076;9.220;2023-07-08T08:34:39;4.35;;;3.03;;
77563;SDS011;66703;48.076;9.220;2023-07-08T08:37:04;7.10;;;3.53;;
77563;SDS011;66703;48.076;9.220;2023-07-08T08:39:30;4.07;;;2.97;;
77563;SDS011;66703;48.076;9.220;2023-07-08T08:41:55;4.75;;;3.22;;
77563;SDS011;66703;48.076;9.220;2023-07-08T08:44:27;3.20;;;2.70;;
77563;SDS011;66703;48.076;9.220;2023-07-08T08:49:36;4.47;;;3.10;;
77563;SDS011;66703;48.076;9.220;2023-07-08T08:52:04;4.50;;;3.15;;
77563;SDS011;66703;48.076;9.220;2023-07-08T08:54:30;4.68;;;2.60;;
77563;SDS011;66703;48.076;9.220;2023-07-08T08:57:58;3.40;;;2.42;;
77563;SDS011;66703;48.076;9.220;2023-07-08T08:59:59;3.63;;;2.97;;
77563;SDS011;66703;48.076;9.220;2023-07-08T09:02:27;5.40;;;2.50;;
77563;SDS011;66703;48.076;9.220;2023-07-08T09:07:21;3.13;;;2.25;;
77563;SDS011;66703;48.076;9.220;2023-07-08T09:10:08;3.53;;;2.85;;
77563;SDS011;66703;48.076;9.220;2023-07-08T09:12:37;4.50;;;2.35;;
77563;SDS011;66703;48.076;9.220;2023-07-08T09:15:12;3.15;;;2.28;;
77563;SDS011;66703;48.076;9.220;2023-07-08T09:17:38;6.65;;;3.53;;
77563;SDS011;66703;48.076;9.220;2023-07-08T09:27:41;3.55;;;2.65;;
77563;SDS011;66703;48.076;9.220;2023-07-08T09:30:09;4.97;;;2.58;;
77563;SDS011;66703;48.076;9.220;2023-07-08T09:32:38;3.22;;;2.60;;
77563;SDS011;66703;48.076;9.220;2023-07-08T09:35:05;3.70;;;3.10;;
77563;SDS011;66703;48.076;9.220;2023-07-08T09:37:33;3.72;;;2.50;;
77563;SDS011;66703;48.076;9.220;2023-07-08T09:39:59;4.82;;;2.80;;
77563;SDS011;66703;48.076;9.220;2023-07-08T09:42:30;3.25;;;2.47;;
77563;SDS011;66703;48.076;9.220;2023-07-08T09:44:58;3.47;;;2.35;;
77563;SDS011;66703;48.076;9.220;2023-07-08T09:47:34;5.45;;;2.88;;
77563;SDS011;66703;48.076;9.220;2023-07-08T09:50:01;7.07;;;2.65;;
77563;SDS011;66703;48.076;9.220;2023-07-08T09:52:29;4.10;;;2.13;;
77563;SDS011;66703;48.076;9.220;2023-07-08T09:54:55;4.95;;;2.85;;
77563;SDS011;66703;48.076;9.220;2023-07-08T09:57:28;4.05;;;3.03;;
77563;SDS011;66703;48.076;9.220;2023-07-08T09:59:56;4.80;;;2.90;;
77563;SDS011;66703;48.076;9.220;2023-07-08T10:04:54;4.07;;;3.15;;
77563;SDS011;66703;48.076;9.220;2023-07-08T10:07:21;4.28;;;2.28;;
77563;SDS011;66703;48.076;9.220;2023-07-08T10:09:48;3.15;;;2.35;;
77563;SDS011;66703;48.076;9.220;2023-07-08T10:12:15;4.00;;;2.40;;
77563;SDS011;66703;48.076;9.220;2023-07-08T10:14:45;3.97;;;2.65;;
77563;SDS011;66703;48.076;9.220;2023-07-08T10:17:14;3.72;;;2.55;;
77563;SDS011;66703;48.076;9.220;2023-07-08T10:19:41;3.47;;;2.65;;
77563;SDS011;66703;48.076;9.220;2023-07-08T10:30:27;3.88;;;2.63;;
77563;SDS011;66703;48.076;9.220;2023-07-08T10:35:35;3.40;;;2.10;;
77563;SDS011;66703;48.076;9.220;2023-07-08T10:43:38;3.38;;;2.47;;
77563;SDS011;66703;48.076;9.220;2023-07-08T10:46:22;5.70;;;3.13;;
77563;SDS011;66703;48.076;9.220;2023-07-08T10:51:24;3.67;;;2.97;;
77563;SDS011;66703;48.076;9.220;2023-07-08T10:54:12;5.90;;;3.10;;
77563;SDS011;66703;48.076;9.220;2023-07-08T10:56:54;4.80;;;2.60;;
77563;SDS011;66703;48.076;9.220;2023-07-08T11:04:32;5.07;;;2.53;;
77563;SDS011;66703;48.076;9.220;2023-07-08T11:07:08;6.75;;;2.50;;
77563;SDS011;66703;48.076;9.220;2023-07-08T11:09:50;5.22;;;2.65;;
77563;SDS011;66703;48.076;9.220;2023-07-08T11:14:49;4.97;;;2.67;;
77563;SDS011;66703;48.076;9.220;2023-07-08T11:17:18;4.07;;;2.70;;
77563;SDS011;66703;48.076;9.220;2023-07-08T11:19:55;3.88;;;2.47;;
77563;SDS011;66703;48.076;9.220;2023-07-08T11:22:24;4.05;;;2.22;;
77563;SDS011;66703;48.076;9.220;2023-07-08T11:24:51;3.03;;;2.30;;
77563;SDS011;66703;48.076;9.220;2023-07-08T11:27:27;3.60;;;2.60;;
77563;SDS011;66703;48.076;9.220;2023-07-08T11:29:55;4.03;;;2.15;;
77563;SDS011;66703;48.076;9.220;2023-07-08T11:32:23;4.25;;;2.40;;
77563;SDS011;66703;48.076;9.220;2023-07-08T11:34:51;4.47;;;2.53;;
77563;SDS011;66703;48.076;9.220;2023-07-08T11:37:17;4.47;;;2.67;;
77563;SDS011;66703;48.076;9.220;2023-07-08T11:39:46;4.70;;;2.70;;
77563;SDS011;66703;48.076;9.220;2023-07-08T11:44:43;3.70;;;3.13;;
77563;SDS011;66703;48.076;9.220;2023-07-08T11:47:17;8.43;;;2.50;;
77563;SDS011;66703;48.076;9.220;2023-07-08T11:49:45;4.90;;;2.90;;
77563;SDS011;66703;48.076;9.220;2023-07-08T11:52:13;3.42;;;2.28;;
77563;SDS011;66703;48.076;9.220;2023-07-08T11:54:46;4.13;;;2.45;;
77563;SDS011;66703;48.076;9.220;2023-07-08T11:57:23;3.78;;;2.63;;
77563;SDS011;66703;48.076;9.220;2023-07-08T12:02:52;3.90;;;2.70;;
77563;SDS011;66703;48.076;9.220;2023-07-08T12:05:28;3.03;;;2.35;;
77563;SDS011;66703;48.076;9.220;2023-07-08T12:07:57;3.78;;;2.72;;
77563;SDS011;66703;48.076;9.220;2023-07-08T12:13:15;4.95;;;3.45;;
77563;SDS011;66703;48.076;9.220;2023-07-08T12:15:43;2.80;;;2.13;;
77563;SDS011;66703;48.076;9.220;2023-07-08T12:18:16;3.85;;;2.35;;
77563;SDS011;66703;48.076;9.220;2023-07-08T12:20:46;6.00;;;2.75;;
77563;SDS011;66703;48.076;9.220;2023-07-08T12:23:15;4.60;;;2.65;;
77563;SDS011;66703;48.076;9.220;2023-07-08T12:25:43;4.93;;;2.45;;
77563;SDS011;66703;48.076;9.220;2023-07-08T12:28:09;4.28;;;2.50;;
77563;SDS011;66703;48.076;9.220;2023-07-08T12:30:37;3.40;;;2.40;;
77563;SDS011;66703;48.076;9.220;2023-07-08T12:33:03;5.20;;;3.03;;
77563;SDS011;66703;48.076;9.220;2023-07-08T12:35:34;4.22;;;2.45;;
77563;SDS011;66703;48.076;9.220;2023-07-08T12:38:01;3.47;;;2.55;;
77563;SDS011;66703;48.076;9.220;2023-07-08T12:40:28;4.50;;;2.80;;
77563;SDS011;66703;48.076;9.220;2023-07-08T12:42:58;4.55;;;3.30;;
77563;SDS011;66703;48.076;9.220;2023-07-08T12:45:26;3.78;;;2.60;;
77563;SDS011;66703;48.076;9.220;2023-07-08T12:47:53;3.83;;;2.45;;
77563;SDS011;66703;48.076;9.220;2023-07-08T12:50:18;4.53;;;2.63;;
77563;SDS011;66703;48.076;9.220;2023-07-08T12:52:44;3.83;;;2.45;;
77563;SDS011;66703;48.076;9.220;2023-07-08T12:55:11;6.10;;;2.60;;
77563;SDS011;66703;48.076;9.220;2023-07-08T12:57:39;4.03;;;2.35;;
77563;SDS011;66703;48.076;9.220;2023-07-08T13:00:06;2.67;;;2.00;;
77563;SDS011;66703;48.076;9.220;2023-07-08T13:02:38;5.55;;;2.88;;
77563;SDS011;66703;48.076;9.220;2023-07-08T13:05:04;4.72;;;2.70;;
77563;SDS011;66703;48.076;9.220;2023-07-08T13:07:36;3.20;;;2.35;;
77563;SDS011;66703;48.076;9.220;2023-07-08T13:10:07;4.35;;;2.53;;
77563;SDS011;66703;48.076;9.220;2023-07-08T13:12:48;5.78;;;3.17;;
77563;SDS011;66703;48.076;9.220;2023-07-08T13:15:23;3.63;;;2.80;;
77563;SDS011;66703;48.076;9.220;2023-07-08T13:17:50;4.03;;;2.72;;
77563;SDS011;66703;48.076;9.220;2023-07-08T13:20:16;3.75;;;2.42;;
77563;SDS011;66703;48.076;9.220;2023-07-08T13:22:42;4.32;;;2.65;;
77563;SDS011;66703;48.076;9.220;2023-07-08T13:25:14;4.03;;;2.72;;
77563;SDS011;66703;48.076;9.220;2023-07-08T13:27:41;3.55;;;2.70;;
77563;SDS011;66703;48.076;9.220;2023-07-08T13:30:18;4.88;;;2.58;;
77563;SDS011;66703;48.076;9.220;2023-07-08T13:32:45;3.88;;;2.50;;
77563;SDS011;66703;48.076;9.220;2023-07-08T13:37:48;4.00;;;2.97;;
77563;SDS011;66703;48.076;9.220;2023-07-08T13:40:15;4.55;;;2.78;;
77563;SDS011;66703;48.076;9.220;2023-07-08T13:42:50;5.10;;;2.92;;
77563;SDS011;66703;48.076;9.220;2023-07-08T13:47:43;3.80;;;2.30;;
77563;SDS011;66703;48.076;9.220;2023-07-08T13:50:15;3.08;;;2.30;;
77563;SDS011;66703;48.076;9.220;2023-07-08T13:52:44;3.65;;;2.60;;
77563;SDS011;66703;48.076;9.220;2023-07-08T13:55:15;3.10;;;2.40;;
77563;SDS011;66703;48.076;9.220;2023-07-08T13:57:42;3.95;;;2.20;;
77563;SDS011;66703;48.076;9.220;2023-07-08T14:00:07;3.67;;;2.50;;
77563;SDS011;66703;48.076;9.220;2023-07-08T14:02:34;3.70;;;2.38;;
77563;SDS011;66703;48.076;9.220;2023-07-08T14:04:59;4.20;;;2.70;;
77563;SDS011;66703;48.076;9.220;2023-07-08T14:07:28;3.08;;;2.50;;
77563;SDS011;66703;48.076;9.220;2023-07-08T14:12:20;4.22;;;2.30;;
77563;SDS011;66703;48.076;9.220;2023-07-08T14:14:46;3.83;;;2.58;;
77563;SDS011;66703;48.076;9.220;2023-07-08T14:17:13;3.22;;;2.40;;
77563;SDS011;66703;48.076;9.220;2023-07-08T14:19:41;3.63;;;2.40;;
77563;SDS011;66703;48.076;9.220;2023-07-08T14:24:38;3.75;;;2.90;;
77563;SDS011;66703;48.076;9.220;2023-07-08T14:27:04;6.05;;;2.80;;
77563;SDS011;66703;48.076;9.220;2023-07-08T14:29:30;4.30;;;2.70;;
77563;SDS011;66703;48.076;9.220;2023-07-08T14:31:56;4.93;;;2.75;;
77563;SDS011;66703;48.076;9.220;2023-07-08T14:34:25;4.15;;;2.78;;
77563;SDS011;66703;48.076;9.220;2023-07-08T14:36:51;3.88;;;2.85;;
77563;SDS011;66703;48.076;9.220;2023-07-08T14:39:17;4.20;;;2.97;;
77563;SDS011;66703;48.076;9.220;2023-07-08T14:41:43;6.45;;;2.90;;
77563;SDS011;66703;48.076;9.220;2023-07-08T14:44:19;5.18;;;2.30;;
77563;SDS011;66703;48.076;9.220;2023-07-08T14:46:46;7.40;;;5.97;;
77563;SDS011;66703;48.076;9.220;2023-07-08T14:49:14;6.72;;;4.43;;
77563;SDS011;66703;48.076;9.220;2023-07-08T14:51:41;7.45;;;4.90;;
77563;SDS011;66703;48.076;9.220;2023-07-08T14:54:06;7.43;;;5.72;;
77563;SDS011;66703;48.076;9.220;2023-07-08T14:56:31;3.70;;;3.20;;
77563;SDS011;66703;48.076;9.220;2023-07-08T14:58:57;4.30;;;3.03;;
77563;SDS011;66703;48.076;9.220;2023-07-08T15:01:23;4.70;;;3.28;;
77563;SDS011;66703;48.076;9.220;2023-07-08T15:03:49;4.55;;;3.42;;
77563;SDS011;66703;48.076;9.220;2023-07-08T15:06:14;3.92;;;2.85;;
77563;SDS011;66703;48.076;9.220;2023-07-08T15:08:40;5.07;;;2.95;;
77563;SDS011;66703;48.076;9.220;2023-07-08T15:11:08;3.85;;;2.80;;
77563;SDS011;66703;48.076;9.220;2023-07-08T15:13:36;4.32;;;2.78;;
77563;SDS011;66703;48.076;9.220;2023-07-08T15:16:01;3.72;;;2.88;;
77563;SDS011;66703;48.076;9.220;2023-07-08T15:18:27;16.88;;;11.10;;
77563;SDS011;66703;48.076;9.220;2023-07-08T15:20:52;21.95;;;14.80;;
77563;SDS011;66703;48.076;9.220;2023-07-08T15:23:17;12.55;;;8.48;;
77563;SDS011;66703;48.076;9.220;2023-07-08T15:25:45;28.55;;;22.23;;
77563;SDS011;66703;48.076;9.220;2023-07-08T15:28:33;11.25;;;8.15;;
77563;SDS011;66703;48.076;9.220;2023-07-08T15:31:12;7.00;;;6.00;;
77563;SDS011;66703;48.076;9.220;2023-07-08T15:33:37;9.93;;;8.00;;
77563;SDS011;66703;48.076;9.220;2023-07-08T15:36:03;4.28;;;2.83;;
77563;SDS011;66703;48.076;9.220;2023-07-08T15:38:28;3.42;;;2.95;;
77563;SDS011;66703;48.076;9.220;2023-07-08T15:40:53;5.38;;;4.60;;
77563;SDS011;66703;48.076;9.220;2023-07-08T15:43:19;5.35;;;3.10;;
77563;SDS011;66703;48.076;9.220;2023-07-08T15:45:44;3.35;;;3.05;;
77563;SDS011;66703;48.076;9.220;2023-07-08T15:48:13;3.60;;;3.28;;
77563;SDS011;66703;48.076;9.220;2023-07-08T15:50:39;6.25;;;4.10;;